Time;durP1;ratioP1;P1;durP2;ratioP2;P2;SDS_P1;SDS_P2;PMS_P1;PMS_P2;Temp;Humidity;BMP_temperature;BMP_pressure;BME280_temperature;BME280_humidity;BME280_pressure;Samples;Min_cycle;Max_cycle;Signal;HPM_P1;HPM_P2
2022/11/07 00:01:45;;;;;;;1.53;0.70;;;11.50;99.90;;;;;;5090498;28;20203;-75
2022/11/07 00:04:11;;;;;;;1.93;1.10;;;11.30;99.90;;;;;;5090828;28;20179;-77
2022/11/07 00:06:37;;;;;;;0.80;0.60;;;11.20;99.90;;;;;;5090442;28;20791;-75
2022/11/07 00:09:02;;;;;;;0.77;0.60;;;11.20;99.90;;;;;;5089803;28;20224;-76
2022/11/07 00:11:28;;;;;;;1.10;0.80;;;11.20;99.90;;;;;;5090062;28;20189;-76
2022/11/07 00:13:53;;;;;;;1.43;1.00;;;11.10;99.90;;;;;;5072021;28;20226;-75
2022/11/07 00:16:19;;;;;;;0.97;0.80;;;11.00;99.90;;;;;;5090154;28;20187;-75
2022/11/07 00:18:44;;;;;;;1.63;0.80;;;11.00;99.90;;;;;;5071948;28;20208;-76
2022/11/07 00:21:10;;;;;;;3.00;0.70;;;10.90;99.90;;;;;;5071865;28;20556;-76
2022/11/07 00:23:38;;;;;;;1.10;0.80;;;10.90;99.90;;;;;;5090303;28;20212;-75
2022/11/07 00:26:07;;;;;;;1.00;0.90;;;10.90;99.90;;;;;;5071869;28;20190;-76
2022/11/07 00:28:34;;;;;;;1.97;0.70;;;10.80;99.90;;;;;;5090314;28;20957;-76
2022/11/07 00:30:59;;;;;;;0.80;0.70;;;10.90;99.90;;;;;;5089976;28;20421;-77
2022/11/07 00:33:25;;;;;;;2.83;0.77;;;10.90;99.90;;;;;;5090098;28;20870;-77
2022/11/07 00:35:51;;;;;;;1.20;0.80;;;10.90;99.90;;;;;;5090037;28;20186;-76
2022/11/07 00:38:16;;;;;;;1.87;0.70;;;11.00;99.90;;;;;;5055724;28;20209;-75
2022/11/07 00:40:42;;;;;;;6.33;0.83;;;10.90;99.90;;;;;;5090357;28;20182;-77
2022/11/07 00:43:07;;;;;;;1.77;0.70;;;11.00;99.90;;;;;;5072037;28;20672;-76
2022/11/07 00:45:33;;;;;;;1.53;0.57;;;11.00;99.90;;;;;;5089864;28;20183;-76
2022/11/07 00:47:59;;;;;;;1.17;0.70;;;11.00;99.90;;;;;;5071294;28;20218;-77
2022/11/07 00:50:24;;;;;;;0.80;0.60;;;11.10;99.90;;;;;;5090014;28;20187;-77
2022/11/07 00:52:50;;;;;;;2.10;0.80;;;11.00;99.90;;;;;;5089566;28;20711;-78
2022/11/07 00:55:15;;;;;;;1.50;0.60;;;11.10;99.90;;;;;;5089328;28;20261;-77
2022/11/07 00:57:41;;;;;;;1.00;0.53;;;10.90;99.90;;;;;;5071235;28;20224;-76
2022/11/07 01:00:07;;;;;;;0.80;0.50;;;11.00;99.90;;;;;;5089224;28;20193;-78
2022/11/07 01:02:33;;;;;;;0.90;0.70;;;11.10;99.90;;;;;;5089548;28;20208;-78
2022/11/07 01:05:11;;;;;;;0.90;0.80;;;11.00;99.90;;;;;;5089280;28;20755;-77
2022/11/07 01:07:40;;;;;;;1.13;0.60;;;10.90;99.90;;;;;;5089347;28;20230;-77
2022/11/07 01:10:06;;;;;;;2.90;0.83;;;11.10;99.90;;;;;;5089203;28;20855;-76
2022/11/07 01:12:33;;;;;;;1.70;0.97;;;11.10;99.90;;;;;;5089218;28;20423;-76
2022/11/07 01:15:01;;;;;;;2.60;0.70;;;11.00;99.90;;;;;;5070996;28;20416;-79
2022/11/07 01:17:26;;;;;;;1.83;0.50;;;11.00;99.90;;;;;;5053920;28;20854;-77
2022/11/07 01:19:52;;;;;;;1.67;0.73;;;11.10;99.90;;;;;;5089281;28;20422;-76
2022/11/07 01:22:17;;;;;;;1.63;0.60;;;11.00;99.90;;;;;;5089462;28;20187;-75
2022/11/07 01:24:43;;;;;;;1.10;0.70;;;11.00;99.90;;;;;;5089032;28;20226;-77
2022/11/07 01:27:09;;;;;;;1.00;0.70;;;11.00;99.90;;;;;;5054047;28;20223;-76
2022/11/07 01:29:35;;;;;;;1.00;0.90;;;11.00;99.90;;;;;;5089121;28;20220;-76
2022/11/07 01:32:00;;;;;;;1.77;0.77;;;11.00;99.90;;;;;;5089743;28;20188;-76
2022/11/07 01:34:26;;;;;;;3.20;1.03;;;10.90;99.90;;;;;;5090397;28;20963;-76
2022/11/07 01:36:52;;;;;;;2.73;1.03;;;11.00;99.90;;;;;;5090634;28;20190;-78
2022/11/07 01:39:18;;;;;;;5.03;1.37;;;11.00;99.90;;;;;;5071881;28;20215;-77
2022/11/07 01:41:43;;;;;;;1.00;0.80;;;11.00;99.90;;;;;;5102751;28;21264;-78
2022/11/07 01:44:09;;;;;;;1.87;0.70;;;11.10;99.90;;;;;;5102647;28;20249;-78
2022/11/07 01:46:40;;;;;;;2.47;0.67;;;11.10;99.90;;;;;;5090799;28;20182;-78
2022/11/07 01:49:23;;;;;;;1.10;0.70;;;11.10;99.90;;;;;;5081133;28;20234;-78
2022/11/07 01:51:57;;;;;;;1.77;1.00;;;11.00;99.90;;;;;;5082956;28;20423;-77
2022/11/07 01:54:30;;;;;;;2.60;1.10;;;11.00;99.90;;;;;;5095741;28;20906;-77
2022/11/07 01:57:02;;;;;;;2.10;1.00;;;11.00;99.90;;;;;;5072362;28;20408;-77
2022/11/07 01:59:30;;;;;;;2.13;1.13;;;11.00;99.90;;;;;;5090301;28;20442;-77
2022/11/07 02:01:56;;;;;;;4.50;1.23;;;11.00;99.90;;;;;;5090389;28;20458;-77
2022/11/07 02:04:25;;;;;;;1.20;0.93;;;11.00;99.90;;;;;;5089473;28;20422;-76
2022/11/07 02:06:55;;;;;;;2.20;0.80;;;11.00;99.90;;;;;;5090036;28;20214;-77
2022/11/07 02:09:21;;;;;;;1.10;0.60;;;11.00;99.90;;;;;;5088922;28;20468;-77
2022/11/07 02:11:46;;;;;;;2.87;0.80;;;10.90;99.90;;;;;;5072299;28;20427;-79
2022/11/07 02:14:16;;;;;;;5.23;1.17;;;10.80;99.90;;;;;;5058920;28;20237;-79
2022/11/07 02:16:42;;;;;;;2.50;1.10;;;10.90;99.90;;;;;;5090535;28;20181;-78
2022/11/07 02:19:17;;;;;;;2.83;1.10;;;11.00;99.90;;;;;;5054987;28;20479;-79
2022/11/07 02:21:56;;;;;;;1.23;0.70;;;10.90;99.90;;;;;;5089435;28;20420;-78
2022/11/07 02:24:28;;;;;;;1.67;0.90;;;10.90;99.90;;;;;;5089706;28;20515;-79
2022/11/07 02:26:55;;;;;;;1.30;0.90;;;11.00;99.90;;;;;;5070980;28;20422;-79
2022/11/07 02:29:22;;;;;;;2.97;1.10;;;11.00;99.90;;;;;;5089105;28;20477;-78
2022/11/07 02:32:01;;;;;;;1.10;0.80;;;11.20;99.90;;;;;;5088955;28;20424;-78
2022/11/07 02:34:27;;;;;;;4.00;0.93;;;11.00;99.90;;;;;;5073798;28;20425;-79
2022/11/07 02:36:52;;;;;;;4.30;0.80;;;11.00;99.90;;;;;;5092861;28;20424;-78
2022/11/07 02:39:18;;;;;;;4.13;0.83;;;10.90;99.90;;;;;;5074092;28;20334;-78
2022/11/07 02:41:45;;;;;;;2.30;0.97;;;11.00;99.90;;;;;;5058036;28;20306;-78
2022/11/07 02:44:11;;;;;;;1.23;0.93;;;10.90;99.90;;;;;;5092995;28;20708;-79
2022/11/07 02:46:39;;;;;;;3.00;1.20;;;10.90;99.90;;;;;;5077459;28;20435;-79
2022/11/07 02:49:04;;;;;;;1.40;1.00;;;11.00;99.90;;;;;;5075970;28;21052;-78
2022/11/07 02:51:30;;;;;;;1.40;1.03;;;11.00;99.90;;;;;;5093911;28;20424;-78
2022/11/07 02:53:55;;;;;;;1.13;0.77;;;11.00;99.90;;;;;;5076316;28;20189;-80
2022/11/07 02:56:22;;;;;;;1.87;0.80;;;10.90;99.90;;;;;;5076981;28;20186;-79
2022/11/07 02:58:47;;;;;;;1.53;1.40;;;10.80;99.90;;;;;;5096134;28;20270;-79
2022/11/07 03:01:14;;;;;;;1.40;0.90;;;10.80;99.90;;;;;;5079408;28;20431;-79
2022/11/07 03:03:45;;;;;;;1.33;0.87;;;10.70;99.90;;;;;;5079867;28;20273;-78
2022/11/07 03:06:13;;;;;;;2.90;0.80;;;10.70;99.90;;;;;;5061382;28;20428;-78
2022/11/07 03:08:39;;;;;;;2.43;1.00;;;10.70;99.90;;;;;;5061684;28;20486;-79
2022/11/07 03:11:06;;;;;;;4.50;1.10;;;10.70;99.90;;;;;;5096237;28;20936;-80
2022/11/07 03:13:32;;;;;;;2.20;1.00;;;11.00;99.90;;;;;;5077565;28;20424;-79
2022/11/07 03:15:58;;;;;;;3.30;1.10;;;10.90;99.90;;;;;;5077029;28;20407;-79
2022/11/07 03:18:24;;;;;;;2.80;0.90;;;11.00;99.90;;;;;;5076964;28;20451;-79
2022/11/07 03:20:49;;;;;;;2.70;0.80;;;10.90;99.90;;;;;;5077655;28;20493;-78
2022/11/07 03:23:15;;;;;;;1.83;0.70;;;10.90;99.90;;;;;;5076625;28;20226;-78
2022/11/07 03:25:41;;;;;;;1.57;0.87;;;10.90;99.90;;;;;;5095501;28;20190;-79
2022/11/07 03:28:06;;;;;;;2.47;1.00;;;11.00;99.90;;;;;;5059095;28;20277;-80
2022/11/07 03:30:32;;;;;;;2.07;1.10;;;11.00;99.90;;;;;;5093675;28;20188;-79
2022/11/07 03:32:58;;;;;;;1.87;0.97;;;11.10;99.90;;;;;;5091842;28;20606;-79
2022/11/07 03:35:24;;;;;;;2.80;1.47;;;11.30;99.90;;;;;;5073135;28;20420;-79
2022/11/07 03:37:50;;;;;;;1.53;0.77;;;11.10;99.90;;;;;;5091099;28;20574;-79
2022/11/07 03:40:16;;;;;;;3.00;1.17;;;11.10;99.90;;;;;;5073023;28;20423;-79
2022/11/07 03:42:43;;;;;;;1.37;0.83;;;11.10;99.90;;;;;;5091340;28;20183;-81
2022/11/07 03:45:11;;;;;;;2.30;0.83;;;11.30;99.90;;;;;;5073055;28;20452;-78
2022/11/07 03:47:38;;;;;;;2.23;0.93;;;11.20;99.90;;;;;;5072571;28;20449;-79
2022/11/07 03:50:05;;;;;;;4.47;2.20;;;11.00;99.90;;;;;;5091322;28;20950;-80
2022/11/07 03:52:30;;;;;;;0.90;0.70;;;10.90;99.90;;;;;;5072543;28;20427;-76
2022/11/07 03:54:56;;;;;;;1.57;0.97;;;11.00;99.90;;;;;;5073033;28;20491;-78
2022/11/07 03:57:22;;;;;;;2.07;1.07;;;10.70;99.90;;;;;;5056245;28;20218;-78
2022/11/07 03:59:47;;;;;;;16.03;2.60;;;10.90;99.90;;;;;;5056440;28;20303;-78
2022/11/07 04:02:13;;;;;;;3.63;1.10;;;10.90;99.90;;;;;;5055654;28;20201;-80
2022/11/07 04:04:38;;;;;;;1.50;0.83;;;11.00;99.90;;;;;;5055967;28;20212;-79
2022/11/07 04:07:04;;;;;;;1.60;1.03;;;11.10;99.90;;;;;;5090837;28;20191;-78
2022/11/07 04:09:30;;;;;;;2.23;0.93;;;11.10;99.90;;;;;;5090354;28;20226;-79
2022/11/07 04:17:25;;;;;;;3.13;0.60;;;11.20;99.90;;;;;;5090885;28;20459;-77
2022/11/07 04:19:54;;;;;;;1.20;0.90;;;11.20;99.90;;;;;;5091378;28;21073;-78
2022/11/07 04:22:24;;;;;;;1.73;0.87;;;11.30;99.90;;;;;;5090939;28;20437;-77
2022/11/07 04:24:50;;;;;;;1.43;1.00;;;11.30;99.90;;;;;;5055945;28;20438;-77
2022/11/07 04:30:25;;;;;;;1.37;0.70;;;11.30;99.90;;;;;;5090097;28;20238;-80
2022/11/07 04:32:56;;;;;;;2.63;0.87;;;11.30;99.90;;;;;;5089958;28;20422;-79
2022/11/07 04:35:25;;;;;;;4.90;1.27;;;11.30;99.90;;;;;;5072859;28;20418;-81
2022/11/07 04:37:51;;;;;;;2.73;1.00;;;11.30;99.90;;;;;;5072818;28;20973;-81
2022/11/07 04:40:17;;;;;;;1.20;0.70;;;11.40;99.90;;;;;;5039643;28;20426;-82
2022/11/07 04:42:44;;;;;;;4.20;1.10;;;11.30;99.90;;;;;;5055588;28;20312;-81
2022/11/07 04:45:11;;;;;;;2.07;1.00;;;11.30;99.90;;;;;;5072061;28;20417;-79
2022/11/07 04:47:37;;;;;;;2.60;1.13;;;11.30;99.90;;;;;;5054556;28;21272;-79
2022/11/07 04:50:04;;;;;;;5.30;1.07;;;11.40;99.90;;;;;;5054853;28;20472;-77
2022/11/07 04:52:30;;;;;;;2.00;0.83;;;11.40;99.90;;;;;;5089535;28;20522;-78
2022/11/07 04:54:55;;;;;;;1.97;0.90;;;11.40;99.90;;;;;;5055544;28;20525;-79
2022/11/07 04:57:21;;;;;;;3.97;1.13;;;11.30;99.90;;;;;;5090517;28;20224;-77
2022/11/07 04:59:46;;;;;;;2.23;1.00;;;11.40;99.90;;;;;;5071715;28;20185;-78
2022/11/07 05:02:13;;;;;;;2.83;0.90;;;11.40;99.90;;;;;;5038533;28;20211;-77
2022/11/07 05:04:39;;;;;;;5.20;1.10;;;11.40;99.90;;;;;;5090810;28;20183;-77
2022/11/07 05:07:06;;;;;;;2.53;0.90;;;11.40;99.90;;;;;;5072343;28;20509;-79
2022/11/07 05:09:33;;;;;;;7.03;1.13;;;11.40;99.90;;;;;;5090442;28;20934;-77
2022/11/07 05:11:59;;;;;;;4.60;1.20;;;11.40;99.90;;;;;;5090927;28;20418;-79
2022/11/07 05:14:24;;;;;;;3.20;0.80;;;11.30;99.90;;;;;;5072714;28;20432;-78
2022/11/07 05:16:53;;;;;;;3.63;1.30;;;11.40;99.90;;;;;;5090903;28;20421;-78
2022/11/07 05:19:19;;;;;;;2.47;1.10;;;11.40;99.90;;;;;;5072137;28;20204;-79
2022/11/07 05:21:45;;;;;;;1.30;0.70;;;11.40;99.90;;;;;;5090540;28;20417;-79
2022/11/07 05:24:11;;;;;;;4.10;0.97;;;11.50;99.90;;;;;;5072712;28;20946;-81
2022/11/07 05:26:37;;;;;;;3.10;1.00;;;11.60;99.90;;;;;;5073699;28;20630;-80
2022/11/07 05:29:03;;;;;;;3.83;1.97;;;11.50;99.90;;;;;;5071548;28;20474;-81
2022/11/07 05:31:29;;;;;;;1.60;1.10;;;11.30;99.90;;;;;;5071338;28;20183;-80
2022/11/07 05:33:54;;;;;;;1.87;1.10;;;11.40;99.90;;;;;;5038521;28;20449;-81
2022/11/07 05:36:22;;;;;;;4.33;1.20;;;11.40;99.90;;;;;;5055456;28;20220;-80
2022/11/07 05:38:50;;;;;;;3.97;1.07;;;11.20;99.90;;;;;;5072692;28;20211;-81
2022/11/07 05:41:17;;;;;;;2.60;1.20;;;11.40;99.90;;;;;;5072490;28;20432;-80
2022/11/07 05:43:43;;;;;;;4.73;1.30;;;11.30;99.90;;;;;;5055224;28;20597;-81
2022/11/07 05:46:09;;;;;;;1.67;1.07;;;11.60;99.90;;;;;;5071217;28;20520;-82
2022/11/07 05:48:35;;;;;;;2.40;0.87;;;11.40;99.90;;;;;;5071167;28;20686;-80
2022/11/07 05:51:02;;;;;;;4.00;1.10;;;11.60;99.90;;;;;;5053980;28;20514;-80
2022/11/07 05:53:27;;;;;;;2.63;0.97;;;11.30;99.90;;;;;;5089076;28;20457;-80
2022/11/07 05:55:54;;;;;;;1.93;1.20;;;11.40;99.90;;;;;;5073165;28;20496;-80
2022/11/07 05:58:20;;;;;;;2.63;1.40;;;11.50;99.90;;;;;;5055922;28;20453;-81
2022/11/07 06:00:46;;;;;;;1.63;0.93;;;11.40;99.90;;;;;;5071126;28;20520;-81
2022/11/07 06:03:12;;;;;;;3.63;1.33;;;11.40;99.90;;;;;;5071043;28;20458;-80
2022/11/07 06:05:39;;;;;;;2.53;1.37;;;11.40;99.90;;;;;;5054469;28;20500;-81
2022/11/07 06:08:06;;;;;;;3.47;1.27;;;11.40;99.90;;;;;;5071846;28;20481;-79
2022/11/07 06:10:32;;;;;;;3.77;1.47;;;11.50;99.90;;;;;;5058667;28;20508;-80
2022/11/07 06:13:03;;;;;;;4.83;1.23;;;11.50;99.90;;;;;;5075511;28;20543;-81
2022/11/07 06:15:30;;;;;;;2.27;1.10;;;11.50;99.90;;;;;;5075375;28;20191;-80
2022/11/07 06:18:00;;;;;;;4.27;1.57;;;11.60;99.90;;;;;;5092929;28;20442;-80
2022/11/07 06:20:26;;;;;;;1.70;1.10;;;11.50;99.90;;;;;;5058715;28;20441;-80
2022/11/07 06:22:59;;;;;;;3.00;1.37;;;11.50;99.90;;;;;;5057781;28;20544;-80
2022/11/07 06:25:26;;;;;;;2.53;1.40;;;11.50;99.90;;;;;;5075040;28;20459;-80
2022/11/07 06:27:52;;;;;;;2.30;1.17;;;11.50;99.90;;;;;;5074263;28;20817;-80
2022/11/07 06:30:17;;;;;;;3.20;1.40;;;11.60;99.90;;;;;;5057612;28;20459;-79
2022/11/07 06:32:44;;;;;;;6.77;1.77;;;11.50;99.90;;;;;;5057504;28;20210;-80
2022/11/07 06:35:11;;;;;;;3.20;1.63;;;11.70;99.90;;;;;;5041242;28;20192;-80
2022/11/07 06:37:37;;;;;;;7.37;1.40;;;11.50;99.90;;;;;;5074441;28;20813;-79
2022/11/07 06:40:03;;;;;;;3.47;1.60;;;11.50;99.90;;;;;;5074372;28;20873;-81
2022/11/07 06:42:29;;;;;;;4.20;1.27;;;11.30;99.90;;;;;;5092850;28;21206;-80
2022/11/07 06:44:54;;;;;;;3.70;1.60;;;11.20;99.90;;;;;;5057947;28;20431;-80
2022/11/07 06:47:20;;;;;;;7.33;2.80;;;11.20;99.90;;;;;;5057959;28;20303;-80
2022/11/07 06:49:46;;;;;;;4.80;1.57;;;11.20;99.90;;;;;;5041133;28;20208;-79
2022/11/07 06:52:11;;;;;;;2.60;1.90;;;11.20;99.90;;;;;;5058416;28;20652;-79
2022/11/07 06:54:37;;;;;;;3.90;1.40;;;11.20;99.90;;;;;;5074429;28;20207;-79
2022/11/07 06:57:03;;;;;;;2.40;1.40;;;11.20;99.90;;;;;;5074183;28;20184;-79
2022/11/07 06:59:28;;;;;;;3.57;2.10;;;11.30;99.90;;;;;;5074130;28;20295;-80
2022/11/07 07:01:54;;;;;;;10.20;2.10;;;11.30;99.90;;;;;;5091794;28;20271;-82
2022/11/07 07:04:19;;;;;;;11.33;2.40;;;11.10;99.90;;;;;;5075234;28;20193;-79
2022/11/07 07:06:45;;;;;;;3.17;1.83;;;11.30;99.90;;;;;;5073652;28;20193;-79
2022/11/07 07:09:11;;;;;;;4.00;2.20;;;11.30;99.90;;;;;;5092804;28;20221;-79
2022/11/07 07:11:37;;;;;;;3.83;1.60;;;11.20;99.90;;;;;;5092712;28;20257;-80
2022/11/07 07:14:04;;;;;;;3.00;1.53;;;11.10;99.90;;;;;;5057213;28;20576;-80
2022/11/07 07:16:30;;;;;;;4.50;1.70;;;11.00;99.90;;;;;;5057648;28;20430;-79
2022/11/07 07:18:55;;;;;;;3.83;1.73;;;11.30;99.90;;;;;;5073741;28;20506;-79
2022/11/07 07:21:21;;;;;;;3.80;1.60;;;11.30;99.90;;;;;;5058111;28;20262;-80
2022/11/07 07:23:46;;;;;;;5.67;2.10;;;11.20;99.90;;;;;;5058233;28;20189;-80
2022/11/07 07:26:14;;;;;;;7.70;1.53;;;11.10;99.90;;;;;;5060445;28;20247;-80
2022/11/07 07:28:41;;;;;;;3.50;1.80;;;11.10;99.90;;;;;;5097205;28;20288;-78
2022/11/07 07:31:20;;;;;;;3.70;1.83;;;11.00;99.90;;;;;;5096103;28;20416;-80
2022/11/07 07:33:47;;;;;;;4.70;2.00;;;11.10;99.90;;;;;;5077188;28;20456;-80
2022/11/07 07:36:13;;;;;;;5.33;1.83;;;11.10;99.90;;;;;;5097915;28;20785;-81
2022/11/07 07:38:38;;;;;;;6.50;2.10;;;11.10;99.90;;;;;;5096209;28;20447;-79
2022/11/07 07:41:04;;;;;;;5.23;2.37;;;11.40;99.90;;;;;;5078323;28;20442;-80
2022/11/07 07:43:31;;;;;;;5.87;1.67;;;11.20;99.90;;;;;;5079355;28;20206;-80
2022/11/07 07:46:02;;;;;;;22.37;11.73;;;11.30;99.90;;;;;;5078140;28;20463;-81
2022/11/07 07:48:28;;;;;;;20.70;9.40;;;11.40;99.90;;;;;;5080409;28;20508;-80
2022/11/07 07:50:54;;;;;;;11.40;4.60;;;11.60;99.90;;;;;;5078649;28;20451;-80
2022/11/07 07:53:20;;;;;;;5.13;1.73;;;11.70;99.90;;;;;;5097472;28;20184;-81
2022/11/07 07:55:46;;;;;;;5.20;3.03;;;11.70;99.90;;;;;;5096010;28;20433;-80
2022/11/07 07:58:12;;;;;;;5.33;2.10;;;11.80;99.90;;;;;;5094681;28;20432;-81
2022/11/07 08:00:38;;;;;;;4.00;2.10;;;11.70;99.90;;;;;;5077192;28;20867;-81
2022/11/07 08:03:13;;;;;;;3.37;2.10;;;11.70;99.90;;;;;;5076212;28;20449;-79
2022/11/07 08:05:39;;;;;;;3.93;1.60;;;11.80;99.90;;;;;;5058226;28;20438;-80
2022/11/07 08:08:06;;;;;;;2.97;1.37;;;11.70;99.90;;;;;;5075440;28;20500;-80
2022/11/07 08:10:32;;;;;;;4.10;1.63;;;11.90;99.90;;;;;;5076433;28;20213;-81
2022/11/07 08:12:58;;;;;;;3.97;1.70;;;12.00;99.90;;;;;;5076150;28;20518;-80
2022/11/07 08:15:23;;;;;;;4.40;1.60;;;12.20;99.90;;;;;;5076287;28;20531;-79
2022/11/07 08:17:49;;;;;;;3.43;1.50;;;12.30;99.90;;;;;;5093533;28;20225;-80
2022/11/07 08:20:23;;;;;;;3.03;1.40;;;12.10;99.90;;;;;;5059420;28;20199;-80
2022/11/07 08:22:49;;;;;;;5.10;1.73;;;12.40;99.90;;;;;;5074577;28;20181;-80
2022/11/07 08:25:15;;;;;;;2.67;1.43;;;12.40;99.90;;;;;;5074872;28;20438;-79
2022/11/07 08:27:40;;;;;;;4.50;1.30;;;12.30;99.90;;;;;;5040378;28;20439;-80
2022/11/07 08:30:08;;;;;;;2.90;1.60;;;12.20;99.90;;;;;;5073975;28;20642;-80
2022/11/07 08:32:33;;;;;;;5.47;2.60;;;12.20;99.90;;;;;;5071051;28;20193;-81
2022/11/07 08:34:59;;;;;;;5.37;2.10;;;12.30;99.90;;;;;;5054629;28;20426;-79
2022/11/07 08:37:25;;;;;;;6.17;2.00;;;12.00;99.90;;;;;;5088947;28;20435;-79
2022/11/07 08:39:50;;;;;;;7.70;1.87;;;12.10;99.90;;;;;;5088912;28;20209;-79
2022/11/07 08:42:16;;;;;;;5.73;1.90;;;12.10;99.90;;;;;;5054343;28;20196;-79
2022/11/07 08:44:42;;;;;;;7.50;2.30;;;12.30;99.90;;;;;;5089237;28;20201;-79
2022/11/07 08:47:07;;;;;;;4.13;2.00;;;12.30;99.90;;;;;;5070831;28;20191;-79
2022/11/07 08:49:33;;;;;;;3.80;1.67;;;12.40;99.90;;;;;;5070711;28;20212;-80
2022/11/07 08:52:00;;;;;;;4.77;1.73;;;12.40;99.90;;;;;;5070511;28;20182;-80
2022/11/07 08:54:27;;;;;;;3.60;1.40;;;12.40;99.90;;;;;;5053792;28;20204;-80
2022/11/07 08:56:53;;;;;;;4.07;1.40;;;12.40;99.90;;;;;;5069938;28;20420;-79
2022/11/07 08:59:19;;;;;;;4.20;1.33;;;12.50;99.90;;;;;;5070145;28;20463;-80
2022/11/07 09:01:45;;;;;;;3.97;1.20;;;12.50;99.90;;;;;;5088835;28;20525;-79
2022/11/07 09:04:10;;;;;;;2.73;1.43;;;12.50;99.90;;;;;;5053567;28;20432;-79
2022/11/07 09:06:36;;;;;;;4.03;1.40;;;12.50;99.90;;;;;;5053220;28;20194;-79
2022/11/07 09:09:02;;;;;;;3.23;1.40;;;12.60;99.90;;;;;;5052591;28;20218;-79
2022/11/07 09:11:27;;;;;;;2.43;1.20;;;12.70;99.90;;;;;;5069615;28;20218;-79
2022/11/07 09:13:54;;;;;;;2.93;1.40;;;12.80;99.90;;;;;;5069345;28;20438;-79
2022/11/07 09:16:21;;;;;;;4.23;1.53;;;12.90;99.90;;;;;;5053315;28;20193;-81
2022/11/07 09:18:48;;;;;;;5.00;1.13;;;13.00;99.90;;;;;;5052590;28;20616;-80
2022/11/07 09:21:15;;;;;;;5.13;1.77;;;13.10;99.90;;;;;;5069504;28;20493;-79
2022/11/07 09:23:40;;;;;;;3.00;1.60;;;13.10;99.90;;;;;;5069471;28;21138;-80
2022/11/07 09:26:06;;;;;;;2.40;1.50;;;13.20;99.90;;;;;;5072245;28;20456;-80
2022/11/07 09:28:33;;;;;;;10.50;4.17;;;13.40;99.90;;;;;;5070807;28;20222;-80
2022/11/07 09:31:00;;;;;;;4.03;1.47;;;13.30;99.90;;;;;;5054944;28;20486;-80
2022/11/07 09:33:26;;;;;;;4.30;1.60;;;13.30;99.90;;;;;;5089941;28;20469;-79
2022/11/07 09:35:52;;;;;;;9.70;1.50;;;13.40;99.90;;;;;;5071498;28;20465;-80
2022/11/07 09:38:18;;;;;;;7.97;1.93;;;13.50;99.90;;;;;;5071870;28;20977;-79
2022/11/07 09:40:53;;;;;;;2.67;1.27;;;13.70;99.90;;;;;;5071140;28;20442;-79
2022/11/07 09:43:30;;;;;;;3.73;1.30;;;14.00;99.90;;;;;;5054344;28;20489;-81
2022/11/07 09:46:16;;;;;;;3.90;1.53;;;14.00;99.90;;;;;;5090626;28;20732;-81
2022/11/07 09:48:46;;;;;;;5.13;1.43;;;14.30;99.90;;;;;;5088438;28;20471;-80
2022/11/07 09:51:15;;;;;;;1.97;1.20;;;14.30;99.90;;;;;;5054073;28;20477;-80
2022/11/07 09:53:46;;;;;;;5.10;1.10;;;14.70;99.90;;;;;;5069882;28;20435;-80
2022/11/07 09:56:13;;;;;;;6.53;1.60;;;14.90;99.90;;;;;;5088220;28;20469;-80
2022/11/07 09:58:45;;;;;;;6.33;1.70;;;14.90;99.90;;;;;;5070208;28;20455;-80
2022/11/07 10:01:15;;;;;;;6.10;2.67;;;14.90;99.90;;;;;;5089331;28;20516;-80
2022/11/07 10:03:41;;;;;;;2.50;1.23;;;14.70;99.90;;;;;;5088754;28;20409;-80
2022/11/07 10:06:27;;;;;;;2.80;1.47;;;14.50;99.90;;;;;;5088616;28;20508;-79
2022/11/07 10:09:17;;;;;;;3.87;1.47;;;13.90;99.90;;;;;;5088074;28;20463;-80
2022/11/07 10:11:45;;;;;;;4.23;1.30;;;13.90;99.90;;;;;;5070680;28;20428;-80
2022/11/07 10:14:32;;;;;;;3.23;1.07;;;13.80;99.90;;;;;;5069381;28;21207;-80
2022/11/07 10:17:14;;;;;;;2.80;1.37;;;13.80;99.90;;;;;;5070334;28;20420;-80
2022/11/07 10:20:15;;;;;;;5.13;1.50;;;13.60;99.90;;;;;;5070343;28;20450;-79
2022/11/07 10:22:54;;;;;;;2.90;1.20;;;13.50;99.90;;;;;;5060877;28;20427;-79
2022/11/07 10:25:47;;;;;;;3.53;1.13;;;13.50;99.90;;;;;;5069892;28;20466;-80
2022/11/07 10:28:18;;;;;;;2.03;1.20;;;13.70;99.90;;;;;;5083206;28;20885;-80
2022/11/07 10:30:49;;;;;;;2.23;1.30;;;13.60;99.90;;;;;;5070652;28;20522;-79
2022/11/07 10:33:42;;;;;;;3.20;1.30;;;13.50;99.90;;;;;;5069790;28;20420;-80
2022/11/07 10:36:17;;;;;;;1.67;1.27;;;13.40;99.90;;;;;;5069959;28;20475;-80
2022/11/07 10:38:42;;;;;;;7.30;2.47;;;13.40;99.90;;;;;;5070415;28;20447;-80
2022/11/07 10:41:17;;;;;;;2.30;1.33;;;13.60;99.90;;;;;;5071741;28;21218;-80
2022/11/07 10:43:48;;;;;;;4.87;1.30;;;13.60;99.90;;;;;;5071442;28;20427;-80
2022/11/07 10:46:21;;;;;;;4.93;1.30;;;13.60;99.90;;;;;;5037486;28;20428;-79
2022/11/07 10:48:52;;;;;;;2.50;1.17;;;13.80;99.90;;;;;;5070658;28;20469;-80
2022/11/07 10:51:18;;;;;;;4.30;1.20;;;13.90;99.90;;;;;;5088196;28;20499;-81
2022/11/07 10:53:45;;;;;;;3.50;1.10;;;13.90;99.90;;;;;;5060680;28;20536;-80
2022/11/07 10:56:12;;;;;;;3.93;1.40;;;14.00;99.90;;;;;;5062187;28;20194;-79
2022/11/07 10:58:45;;;;;;;2.70;1.40;;;14.70;99.90;;;;;;5074119;28;20512;-79
2022/11/07 11:01:11;;;;;;;4.20;1.23;;;14.80;99.90;;;;;;5074303;28;20451;-79
2022/11/07 11:03:48;;;;;;;2.70;1.67;;;14.90;99.90;;;;;;5074493;28;20416;-80
2022/11/07 11:06:17;;;;;;;2.60;1.20;;;15.00;99.90;;;;;;5074973;28;20419;-79
2022/11/07 11:08:47;;;;;;;3.43;1.20;;;14.90;99.90;;;;;;5092309;28;21003;-79
2022/11/07 11:11:14;;;;;;;2.33;1.00;;;14.80;99.90;;;;;;5092307;28;20408;-79
2022/11/07 11:13:39;;;;;;;1.77;1.10;;;14.70;99.90;;;;;;5073169;28;20423;-79
2022/11/07 11:16:14;;;;;;;3.23;1.30;;;14.50;99.90;;;;;;5073350;28;20484;-79
2022/11/07 11:18:56;;;;;;;3.73;1.50;;;14.50;99.90;;;;;;5074321;28;20284;-78
2022/11/07 11:21:22;;;;;;;2.70;1.50;;;14.50;99.90;;;;;;5091615;28;20776;-79
2022/11/07 11:23:48;;;;;;;4.37;1.60;;;14.50;99.90;;;;;;5073286;28;20429;-79
2022/11/07 11:26:19;;;;;;;4.77;1.13;;;14.50;99.90;;;;;;5073411;28;20435;-80
2022/11/07 11:28:51;;;;;;;2.33;1.23;;;14.50;99.90;;;;;;5073908;28;21018;-79
2022/11/07 11:31:40;;;;;;;2.67;1.07;;;14.50;99.90;;;;;;5073256;28;20416;-79
2022/11/07 11:34:12;;;;;;;4.50;1.27;;;14.60;99.90;;;;;;5072414;28;20926;-78
2022/11/07 11:37:00;;;;;;;3.37;1.17;;;14.70;99.90;;;;;;5090430;28;20413;-79
2022/11/07 11:39:38;;;;;;;4.53;2.17;;;14.90;99.90;;;;;;5071314;28;20800;-79
2022/11/07 11:42:04;;;;;;;3.20;1.30;;;15.00;99.90;;;;;;5073223;28;20481;-80
2022/11/07 11:44:36;;;;;;;9.33;1.83;;;15.20;99.90;;;;;;5057541;28;21280;-79
2022/11/07 11:47:11;;;;;;;4.93;1.10;;;15.20;99.90;;;;;;5075795;28;20443;-79
2022/11/07 11:49:46;;;;;;;4.93;1.50;;;15.30;99.90;;;;;;5075067;28;20527;-80
2022/11/07 11:52:16;;;;;;;4.07;1.20;;;15.40;99.90;;;;;;5074274;28;20417;-80
2022/11/07 11:54:42;;;;;;;5.37;1.70;;;15.30;99.90;;;;;;5075723;28;20501;-80
2022/11/07 11:57:17;;;;;;;3.83;1.30;;;15.10;99.90;;;;;;5092794;28;20436;-79
2022/11/07 11:59:52;;;;;;;6.73;1.40;;;15.10;99.90;;;;;;5092674;28;20444;-80
2022/11/07 12:02:59;;;;;;;3.67;0.90;;;15.00;99.90;;;;;;5075254;28;21041;-80
2022/11/07 12:05:42;;;;;;;2.00;1.00;;;15.00;99.90;;;;;;5031547;28;20414;-79
2022/11/07 12:08:32;;;;;;;2.87;1.20;;;15.10;99.90;;;;;;5071536;28;20492;-80
2022/11/07 12:11:50;;;;;;;4.40;1.10;;;15.10;99.90;;;;;;5077460;28;20420;-80
2022/11/07 12:14:28;;;;;;;7.50;1.33;;;15.10;99.90;;;;;;5049072;28;20485;-79
2022/11/07 12:17:23;;;;;;;2.53;0.90;;;15.00;99.90;;;;;;5032705;28;20453;-80
2022/11/07 12:19:48;;;;;;;5.37;1.30;;;14.90;99.90;;;;;;5069229;28;20464;-80
2022/11/07 12:22:23;;;;;;;1.40;1.00;;;14.90;99.90;;;;;;5093126;28;20417;-80
2022/11/07 12:24:55;;;;;;;4.13;1.00;;;14.80;99.90;;;;;;5074649;28;20175;-81
2022/11/07 12:27:45;;;;;;;4.10;1.40;;;14.80;99.90;;;;;;5073626;28;20445;-79
2022/11/07 12:30:17;;;;;;;2.03;1.13;;;14.80;99.90;;;;;;5074179;28;21289;-80
2022/11/07 12:33:09;;;;;;;5.50;1.50;;;14.80;99.90;;;;;;5093267;28;20991;-79
2022/11/07 12:35:41;;;;;;;4.97;1.90;;;14.90;99.90;;;;;;5072807;28;20422;-80
2022/11/07 12:38:25;;;;;;;6.20;1.30;;;15.00;99.90;;;;;;5090243;28;20447;-79
2022/11/07 12:41:16;;;;;;;2.50;1.83;;;15.00;99.90;;;;;;5091558;28;20419;-79
2022/11/07 12:44:03;;;;;;;4.60;1.80;;;15.10;99.90;;;;;;5092236;28;20491;-80
2022/11/07 12:46:48;;;;;;;8.30;2.20;;;15.20;99.90;;;;;;5065635;28;20427;-81
2022/11/07 12:49:35;;;;;;;4.77;1.87;;;15.30;99.90;;;;;;5091069;28;20491;-81
2022/11/07 12:52:20;;;;;;;2.50;1.20;;;15.30;99.90;;;;;;5091900;28;20406;-81
2022/11/07 12:55:03;;;;;;;3.53;1.30;;;15.30;99.90;;;;;;5073371;28;20421;-81
2022/11/07 12:57:36;;;;;;;3.13;1.33;;;15.30;99.90;;;;;;5072303;28;20584;-80
2022/11/07 13:00:14;;;;;;;4.70;1.27;;;15.30;99.90;;;;;;5073116;28;20987;-80
2022/11/07 13:03:09;;;;;;;5.47;1.40;;;15.30;99.90;;;;;;5092224;28;20515;-79
2022/11/07 13:06:05;;;;;;;3.97;1.20;;;15.30;99.90;;;;;;5098048;28;20426;-80